sensor_id;sensor_type;location;lat;lon;timestamp;P1;durP1;ratioP1;P2;durP2;ratioP2
815;SDS011;25928;51.062;13.752;2023-06-10T00:00:55;12.67;;;11.57;;
815;SDS011;25928;51.062;13.752;2023-06-10T00:03:21;14.17;;;11.87;;
815;SDS011;25928;51.062;13.752;2023-06-10T00:05:49;12.70;;;11.70;;
815;SDS011;25928;51.062;13.752;2023-06-10T00:08:14;12.07;;;11.17;;
815;SDS011;25928;51.062;13.752;2023-06-10T00:10:40;12.90;;;11.80;;
815;SDS011;25928;51.062;13.752;2023-06-10T00:13:06;11.97;;;11.00;;
815;SDS011;25928;51.062;13.752;2023-06-10T00:15:36;13.90;;;11.13;;
815;SDS011;25928;51.062;13.752;2023-06-10T00:18:03;13.57;;;12.37;;
815;SDS011;25928;51.062;13.752;2023-06-10T00:20:29;12.80;;;11.60;;
815;SDS011;25928;51.062;13.752;2023-06-10T00:22:55;12.20;;;11.20;;
815;SDS011;25928;51.062;13.752;2023-06-10T00:25:24;13.03;;;12.03;;
815;SDS011;25928;51.062;13.752;2023-06-10T00:27:50;12.47;;;11.37;;
815;SDS011;25928;51.062;13.752;2023-06-10T00:30:16;12.23;;;11.20;;
815;SDS011;25928;51.062;13.752;2023-06-10T00:32:42;12.77;;;11.57;;
815;SDS011;25928;51.062;13.752;2023-06-10T00:35:07;11.40;;;10.50;;
815;SDS011;25928;51.062;13.752;2023-06-10T00:37:33;11.43;;;10.50;;
815;SDS011;25928;51.062;13.752;2023-06-10T00:40:03;12.00;;;10.90;;
815;SDS011;25928;51.062;13.752;2023-06-10T00:42:29;10.73;;;9.83;;
815;SDS011;25928;51.062;13.752;2023-06-10T00:44:55;11.03;;;10.03;;
815;SDS011;25928;51.062;13.752;2023-06-10T00:47:21;10.53;;;9.63;;
815;SDS011;25928;51.062;13.752;2023-06-10T00:49:47;10.23;;;9.23;;
815;SDS011;25928;51.062;13.752;2023-06-10T00:52:14;10.60;;;9.60;;
815;SDS011;25928;51.062;13.752;2023-06-10T00:54:41;9.77;;;8.70;;
815;SDS011;25928;51.062;13.752;2023-06-10T00:57:07;10.97;;;10.00;;
815;SDS011;25928;51.062;13.752;2023-06-10T00:59:33;12.20;;;11.20;;
815;SDS011;25928;51.062;13.752;2023-06-10T01:01:59;10.03;;;9.13;;
815;SDS011;25928;51.062;13.752;2023-06-10T01:04:25;9.97;;;9.17;;
815;SDS011;25928;51.062;13.752;2023-06-10T01:06:57;10.67;;;9.70;;
815;SDS011;25928;51.062;13.752;2023-06-10T01:12:05;9.73;;;8.93;;
815;SDS011;25928;51.062;13.752;2023-06-10T01:14:58;11.13;;;10.13;;
815;SDS011;25928;51.062;13.752;2023-06-10T01:17:24;11.80;;;10.80;;
815;SDS011;25928;51.062;13.752;2023-06-10T01:19:55;9.30;;;8.60;;
815;SDS011;25928;51.062;13.752;2023-06-10T01:22:23;10.30;;;9.30;;
815;SDS011;25928;51.062;13.752;2023-06-10T01:24:57;9.70;;;9.00;;
815;SDS011;25928;51.062;13.752;2023-06-10T01:27:25;9.87;;;9.00;;
815;SDS011;25928;51.062;13.752;2023-06-10T01:29:54;10.37;;;9.47;;
815;SDS011;25928;51.062;13.752;2023-06-10T01:32:32;10.80;;;10.00;;
815;SDS011;25928;51.062;13.752;2023-06-10T01:35:02;9.67;;;8.77;;
815;SDS011;25928;51.062;13.752;2023-06-10T01:37:28;10.03;;;9.03;;
815;SDS011;25928;51.062;13.752;2023-06-10T01:39:56;10.23;;;9.40;;
815;SDS011;25928;51.062;13.752;2023-06-10T01:42:24;10.03;;;9.13;;
815;SDS011;25928;51.062;13.752;2023-06-10T01:44:50;10.67;;;9.57;;
815;SDS011;25928;51.062;13.752;2023-06-10T01:47:16;10.60;;;9.70;;
815;SDS011;25928;51.062;13.752;2023-06-10T01:49:42;11.00;;;9.90;;
815;SDS011;25928;51.062;13.752;2023-06-10T01:52:08;11.33;;;10.33;;
815;SDS011;25928;51.062;13.752;2023-06-10T01:54:34;9.60;;;8.90;;
815;SDS011;25928;51.062;13.752;2023-06-10T01:57:00;11.53;;;10.63;;
815;SDS011;25928;51.062;13.752;2023-06-10T01:59:26;10.77;;;9.87;;
815;SDS011;25928;51.062;13.752;2023-06-10T02:01:53;11.53;;;10.57;;
815;SDS011;25928;51.062;13.752;2023-06-10T02:04:19;10.83;;;10.03;;
815;SDS011;25928;51.062;13.752;2023-06-10T02:06:45;11.23;;;10.23;;
815;SDS011;25928;51.062;13.752;2023-06-10T02:09:10;10.97;;;10.10;;
815;SDS011;25928;51.062;13.752;2023-06-10T02:11:36;11.13;;;10.13;;
815;SDS011;25928;51.062;13.752;2023-06-10T02:14:02;10.97;;;9.97;;
815;SDS011;25928;51.062;13.752;2023-06-10T02:16:27;11.70;;;10.70;;
815;SDS011;25928;51.062;13.752;2023-06-10T02:18:53;10.53;;;9.63;;
815;SDS011;25928;51.062;13.752;2023-06-10T02:21:19;10.70;;;9.80;;
815;SDS011;25928;51.062;13.752;2023-06-10T02:23:45;11.93;;;10.87;;
815;SDS011;25928;51.062;13.752;2023-06-10T02:26:11;11.87;;;10.87;;
815;SDS011;25928;51.062;13.752;2023-06-10T02:28:36;11.40;;;10.50;;
815;SDS011;25928;51.062;13.752;2023-06-10T02:31:02;11.87;;;10.80;;
815;SDS011;25928;51.062;13.752;2023-06-10T02:33:27;11.80;;;10.90;;
815;SDS011;25928;51.062;13.752;2023-06-10T02:35:53;11.93;;;11.03;;
815;SDS011;25928;51.062;13.752;2023-06-10T02:38:20;11.83;;;10.83;;
815;SDS011;25928;51.062;13.752;2023-06-10T02:40:45;12.83;;;11.73;;
815;SDS011;25928;51.062;13.752;2023-06-10T02:43:11;11.80;;;10.80;;
815;SDS011;25928;51.062;13.752;2023-06-10T02:45:37;12.27;;;11.17;;
815;SDS011;25928;51.062;13.752;2023-06-10T02:48:02;11.90;;;10.90;;
815;SDS011;25928;51.062;13.752;2023-06-10T02:50:28;12.33;;;11.43;;
815;SDS011;25928;51.062;13.752;2023-06-10T02:52:54;11.90;;;10.80;;
815;SDS011;25928;51.062;13.752;2023-06-10T02:55:19;11.17;;;10.17;;
815;SDS011;25928;51.062;13.752;2023-06-10T02:57:46;12.10;;;11.10;;
815;SDS011;25928;51.062;13.752;2023-06-10T03:00:12;12.13;;;11.13;;
815;SDS011;25928;51.062;13.752;2023-06-10T03:02:39;11.70;;;10.73;;
815;SDS011;25928;51.062;13.752;2023-06-10T03:05:05;11.40;;;10.40;;
815;SDS011;25928;51.062;13.752;2023-06-10T03:07:35;11.97;;;11.03;;
815;SDS011;25928;51.062;13.752;2023-06-10T03:10:01;11.53;;;10.53;;
815;SDS011;25928;51.062;13.752;2023-06-10T03:12:26;12.20;;;11.20;;
815;SDS011;25928;51.062;13.752;2023-06-10T03:14:52;12.00;;;11.00;;
815;SDS011;25928;51.062;13.752;2023-06-10T03:17:18;12.07;;;11.07;;
815;SDS011;25928;51.062;13.752;2023-06-10T03:19:43;13.50;;;12.30;;
815;SDS011;25928;51.062;13.752;2023-06-10T03:24:35;13.93;;;12.53;;
815;SDS011;25928;51.062;13.752;2023-06-10T03:27:04;12.70;;;11.60;;
815;SDS011;25928;51.062;13.752;2023-06-10T03:29:34;12.07;;;11.17;;
815;SDS011;25928;51.062;13.752;2023-06-10T03:32:02;12.03;;;11.03;;
815;SDS011;25928;51.062;13.752;2023-06-10T03:34:28;13.03;;;11.87;;
815;SDS011;25928;51.062;13.752;2023-06-10T03:36:55;11.97;;;10.97;;
815;SDS011;25928;51.062;13.752;2023-06-10T03:39:21;11.30;;;10.07;;
815;SDS011;25928;51.062;13.752;2023-06-10T03:41:48;11.87;;;10.87;;
815;SDS011;25928;51.062;13.752;2023-06-10T03:44:14;11.50;;;10.60;;
815;SDS011;25928;51.062;13.752;2023-06-10T03:46:40;11.67;;;10.67;;
815;SDS011;25928;51.062;13.752;2023-06-10T03:49:05;11.43;;;10.40;;
815;SDS011;25928;51.062;13.752;2023-06-10T03:51:31;10.87;;;10.07;;
815;SDS011;25928;51.062;13.752;2023-06-10T03:53:57;11.17;;;10.27;;
815;SDS011;25928;51.062;13.752;2023-06-10T03:56:22;11.30;;;10.47;;
815;SDS011;25928;51.062;13.752;2023-06-10T03:58:48;11.70;;;10.70;;
815;SDS011;25928;51.062;13.752;2023-06-10T04:01:14;12.90;;;11.80;;
815;SDS011;25928;51.062;13.752;2023-06-10T04:03:40;12.53;;;11.53;;
815;SDS011;25928;51.062;13.752;2023-06-10T04:06:06;12.17;;;11.17;;
815;SDS011;25928;51.062;13.752;2023-06-10T04:08:32;12.20;;;11.30;;
815;SDS011;25928;51.062;13.752;2023-06-10T04:10:58;14.90;;;13.60;;
815;SDS011;25928;51.062;13.752;2023-06-10T04:13:24;14.87;;;13.67;;
815;SDS011;25928;51.062;13.752;2023-06-10T04:15:51;15.47;;;14.17;;
815;SDS011;25928;51.062;13.752;2023-06-10T04:18:16;13.97;;;12.87;;
815;SDS011;25928;51.062;13.752;2023-06-10T04:20:42;14.37;;;13.13;;
815;SDS011;25928;51.062;13.752;2023-06-10T04:23:09;14.90;;;13.70;;
815;SDS011;25928;51.062;13.752;2023-06-10T04:25:35;14.13;;;13.03;;
815;SDS011;25928;51.062;13.752;2023-06-10T04:28:01;14.33;;;13.17;;
815;SDS011;25928;51.062;13.752;2023-06-10T04:30:26;14.83;;;13.60;;
815;SDS011;25928;51.062;13.752;2023-06-10T04:32:52;14.77;;;13.57;;
815;SDS011;25928;51.062;13.752;2023-06-10T04:35:17;13.90;;;12.80;;
815;SDS011;25928;51.062;13.752;2023-06-10T04:37:43;13.23;;;12.03;;
815;SDS011;25928;51.062;13.752;2023-06-10T04:40:09;13.13;;;12.13;;
815;SDS011;25928;51.062;13.752;2023-06-10T04:42:35;13.63;;;12.43;;
815;SDS011;25928;51.062;13.752;2023-06-10T04:45:01;13.90;;;12.70;;
815;SDS011;25928;51.062;13.752;2023-06-10T04:47:27;14.30;;;13.00;;
815;SDS011;25928;51.062;13.752;2023-06-10T04:49:53;13.50;;;12.30;;
815;SDS011;25928;51.062;13.752;2023-06-10T04:52:19;13.97;;;12.87;;
815;SDS011;25928;51.062;13.752;2023-06-10T04:54:44;12.20;;;11.10;;
815;SDS011;25928;51.062;13.752;2023-06-10T04:57:10;13.10;;;11.87;;
815;SDS011;25928;51.062;13.752;2023-06-10T04:59:36;12.60;;;11.60;;
815;SDS011;25928;51.062;13.752;2023-06-10T05:02:03;12.47;;;11.47;;
815;SDS011;25928;51.062;13.752;2023-06-10T05:04:30;12.03;;;10.93;;
815;SDS011;25928;51.062;13.752;2023-06-10T05:06:56;13.27;;;12.07;;
815;SDS011;25928;51.062;13.752;2023-06-10T05:09:21;11.20;;;10.10;;
815;SDS011;25928;51.062;13.752;2023-06-10T05:11:47;10.60;;;9.80;;
815;SDS011;25928;51.062;13.752;2023-06-10T05:14:13;11.07;;;10.00;;
815;SDS011;25928;51.062;13.752;2023-06-10T05:16:41;10.00;;;9.30;;
815;SDS011;25928;51.062;13.752;2023-06-10T05:19:09;9.90;;;9.10;;
815;SDS011;25928;51.062;13.752;2023-06-10T05:21:35;10.00;;;9.20;;
815;SDS011;25928;51.062;13.752;2023-06-10T05:24:00;12.10;;;10.30;;
815;SDS011;25928;51.062;13.752;2023-06-10T05:26:26;10.60;;;9.80;;
815;SDS011;25928;51.062;13.752;2023-06-10T05:28:51;10.60;;;9.63;;
815;SDS011;25928;51.062;13.752;2023-06-10T05:31:17;10.43;;;8.87;;
815;SDS011;25928;51.062;13.752;2023-06-10T05:33:43;9.40;;;8.60;;
815;SDS011;25928;51.062;13.752;2023-06-10T05:36:09;9.80;;;8.90;;
815;SDS011;25928;51.062;13.752;2023-06-10T05:38:34;9.90;;;9.17;;
815;SDS011;25928;51.062;13.752;2023-06-10T05:41:00;9.23;;;8.30;;
815;SDS011;25928;51.062;13.752;2023-06-10T05:43:25;10.00;;;9.20;;
815;SDS011;25928;51.062;13.752;2023-06-10T05:45:51;9.67;;;8.80;;
815;SDS011;25928;51.062;13.752;2023-06-10T05:48:17;9.53;;;8.73;;
815;SDS011;25928;51.062;13.752;2023-06-10T05:50:44;9.90;;;8.97;;
815;SDS011;25928;51.062;13.752;2023-06-10T05:53:13;9.53;;;8.83;;
815;SDS011;25928;51.062;13.752;2023-06-10T05:55:43;9.43;;;8.63;;
815;SDS011;25928;51.062;13.752;2023-06-10T05:58:10;9.30;;;8.50;;
815;SDS011;25928;51.062;13.752;2023-06-10T06:00:37;7.70;;;7.10;;
815;SDS011;25928;51.062;13.752;2023-06-10T06:03:09;7.93;;;7.33;;
815;SDS011;25928;51.062;13.752;2023-06-10T06:05:35;8.70;;;8.00;;
815;SDS011;25928;51.062;13.752;2023-06-10T06:08:03;7.60;;;7.00;;
815;SDS011;25928;51.062;13.752;2023-06-10T06:10:32;7.43;;;6.70;;
815;SDS011;25928;51.062;13.752;2023-06-10T06:12:57;8.43;;;7.63;;
815;SDS011;25928;51.062;13.752;2023-06-10T06:15:23;9.37;;;8.57;;
815;SDS011;25928;51.062;13.752;2023-06-10T06:17:49;7.67;;;7.00;;
815;SDS011;25928;51.062;13.752;2023-06-10T06:20:17;8.93;;;8.23;;
815;SDS011;25928;51.062;13.752;2023-06-10T06:22:43;7.10;;;6.50;;
815;SDS011;25928;51.062;13.752;2023-06-10T06:25:09;8.20;;;7.60;;
815;SDS011;25928;51.062;13.752;2023-06-10T06:27:35;7.97;;;7.17;;
815;SDS011;25928;51.062;13.752;2023-06-10T06:30:00;7.90;;;7.13;;
815;SDS011;25928;51.062;13.752;2023-06-10T06:32:26;7.93;;;7.30;;
815;SDS011;25928;51.062;13.752;2023-06-10T06:34:52;7.60;;;7.00;;
815;SDS011;25928;51.062;13.752;2023-06-10T06:37:22;7.60;;;7.00;;
815;SDS011;25928;51.062;13.752;2023-06-10T06:39:54;7.53;;;6.90;;
815;SDS011;25928;51.062;13.752;2023-06-10T06:42:20;8.10;;;7.50;;
815;SDS011;25928;51.062;13.752;2023-06-10T06:44:46;8.87;;;8.27;;
815;SDS011;25928;51.062;13.752;2023-06-10T06:47:12;8.30;;;7.60;;
815;SDS011;25928;51.062;13.752;2023-06-10T06:49:38;10.50;;;9.70;;
815;SDS011;25928;51.062;13.752;2023-06-10T06:52:04;8.30;;;7.60;;
815;SDS011;25928;51.062;13.752;2023-06-10T06:54:30;8.67;;;8.07;;
815;SDS011;25928;51.062;13.752;2023-06-10T06:56:56;9.07;;;8.03;;
815;SDS011;25928;51.062;13.752;2023-06-10T06:59:22;8.60;;;8.00;;
815;SDS011;25928;51.062;13.752;2023-06-10T07:01:48;7.70;;;7.10;;
815;SDS011;25928;51.062;13.752;2023-06-10T07:04:14;8.60;;;7.90;;
815;SDS011;25928;51.062;13.752;2023-06-10T07:06:41;8.63;;;7.93;;
815;SDS011;25928;51.062;13.752;2023-06-10T07:09:09;8.33;;;7.57;;
815;SDS011;25928;51.062;13.752;2023-06-10T07:11:35;9.13;;;8.43;;
815;SDS011;25928;51.062;13.752;2023-06-10T07:14:00;7.33;;;6.83;;
815;SDS011;25928;51.062;13.752;2023-06-10T07:16:26;8.63;;;7.97;;
815;SDS011;25928;51.062;13.752;2023-06-10T07:18:54;8.70;;;7.90;;
815;SDS011;25928;51.062;13.752;2023-06-10T07:21:20;8.80;;;8.10;;
815;SDS011;25928;51.062;13.752;2023-06-10T07:23:47;11.80;;;11.00;;
815;SDS011;25928;51.062;13.752;2023-06-10T07:26:13;9.43;;;8.43;;
815;SDS011;25928;51.062;13.752;2023-06-10T07:28:41;9.00;;;8.30;;
815;SDS011;25928;51.062;13.752;2023-06-10T07:31:07;9.03;;;8.43;;
815;SDS011;25928;51.062;13.752;2023-06-10T07:33:33;9.03;;;8.40;;
815;SDS011;25928;51.062;13.752;2023-06-10T07:35:59;9.23;;;8.47;;
815;SDS011;25928;51.062;13.752;2023-06-10T07:38:25;10.27;;;9.23;;
815;SDS011;25928;51.062;13.752;2023-06-10T07:40:51;9.10;;;8.40;;
815;SDS011;25928;51.062;13.752;2023-06-10T07:43:17;9.03;;;8.33;;
815;SDS011;25928;51.062;13.752;2023-06-10T07:45:43;8.13;;;7.43;;
815;SDS011;25928;51.062;13.752;2023-06-10T07:48:09;9.00;;;8.20;;
815;SDS011;25928;51.062;13.752;2023-06-10T07:50:35;8.90;;;8.10;;
815;SDS011;25928;51.062;13.752;2023-06-10T07:53:00;9.10;;;8.40;;
815;SDS011;25928;51.062;13.752;2023-06-10T07:55:26;9.40;;;8.50;;
815;SDS011;25928;51.062;13.752;2023-06-10T07:57:52;9.70;;;9.00;;
815;SDS011;25928;51.062;13.752;2023-06-10T08:00:19;9.60;;;8.90;;
815;SDS011;25928;51.062;13.752;2023-06-10T08:02:45;8.93;;;8.33;;
815;SDS011;25928;51.062;13.752;2023-06-10T08:05:11;9.20;;;8.40;;
815;SDS011;25928;51.062;13.752;2023-06-10T08:07:37;10.00;;;9.10;;
815;SDS011;25928;51.062;13.752;2023-06-10T08:10:04;10.10;;;9.03;;
815;SDS011;25928;51.062;13.752;2023-06-10T08:12:30;9.17;;;8.30;;
815;SDS011;25928;51.062;13.752;2023-06-10T08:14:56;9.37;;;8.47;;
815;SDS011;25928;51.062;13.752;2023-06-10T08:17:22;9.00;;;8.30;;
815;SDS011;25928;51.062;13.752;2023-06-10T08:19:48;9.07;;;8.27;;
815;SDS011;25928;51.062;13.752;2023-06-10T08:22:14;9.37;;;8.67;;
815;SDS011;25928;51.062;13.752;2023-06-10T08:24:40;9.13;;;8.43;;
815;SDS011;25928;51.062;13.752;2023-06-10T08:27:05;9.07;;;8.37;;
815;SDS011;25928;51.062;13.752;2023-06-10T08:29:31;9.10;;;8.40;;
815;SDS011;25928;51.062;13.752;2023-06-10T08:31:57;9.20;;;8.50;;
815;SDS011;25928;51.062;13.752;2023-06-10T08:34:23;9.50;;;8.70;;
815;SDS011;25928;51.062;13.752;2023-06-10T08:36:49;9.50;;;8.80;;
815;SDS011;25928;51.062;13.752;2023-06-10T08:39:20;9.20;;;8.40;;
815;SDS011;25928;51.062;13.752;2023-06-10T08:41:50;9.10;;;8.30;;
815;SDS011;25928;51.062;13.752;2023-06-10T08:44:35;9.80;;;9.10;;
815;SDS011;25928;51.062;13.752;2023-06-10T08:47:09;9.10;;;8.47;;
815;SDS011;25928;51.062;13.752;2023-06-10T08:49:46;9.07;;;8.27;;
815;SDS011;25928;51.062;13.752;2023-06-10T08:52:18;9.40;;;8.57;;
815;SDS011;25928;51.062;13.752;2023-06-10T08:57:24;8.80;;;8.07;;
815;SDS011;25928;51.062;13.752;2023-06-10T08:59:52;8.80;;;8.17;;
815;SDS011;25928;51.062;13.752;2023-06-10T09:02:19;8.33;;;7.73;;
815;SDS011;25928;51.062;13.752;2023-06-10T09:04:48;9.43;;;8.57;;
815;SDS011;25928;51.062;13.752;2023-06-10T09:07:18;8.60;;;8.00;;
815;SDS011;25928;51.062;13.752;2023-06-10T09:09:44;8.87;;;8.20;;
815;SDS011;25928;51.062;13.752;2023-06-10T09:12:10;8.60;;;7.80;;
815;SDS011;25928;51.062;13.752;2023-06-10T09:14:37;8.77;;;7.97;;
815;SDS011;25928;51.062;13.752;2023-06-10T09:17:03;9.20;;;8.40;;
815;SDS011;25928;51.062;13.752;2023-06-10T09:19:30;9.00;;;8.27;;
815;SDS011;25928;51.062;13.752;2023-06-10T09:21:56;9.07;;;8.17;;
815;SDS011;25928;51.062;13.752;2023-06-10T09:24:22;8.10;;;7.40;;
815;SDS011;25928;51.062;13.752;2023-06-10T09:26:48;8.13;;;7.47;;
815;SDS011;25928;51.062;13.752;2023-06-10T09:29:15;7.43;;;6.83;;
815;SDS011;25928;51.062;13.752;2023-06-10T09:31:41;9.33;;;7.40;;
815;SDS011;25928;51.062;13.752;2023-06-10T09:34:10;9.50;;;8.70;;
815;SDS011;25928;51.062;13.752;2023-06-10T09:36:37;9.00;;;8.30;;
815;SDS011;25928;51.062;13.752;2023-06-10T09:39:04;8.43;;;7.73;;
815;SDS011;25928;51.062;13.752;2023-06-10T09:41:39;9.10;;;8.20;;
815;SDS011;25928;51.062;13.752;2023-06-10T09:44:11;8.87;;;8.00;;
815;SDS011;25928;51.062;13.752;2023-06-10T09:46:39;8.40;;;7.60;;
815;SDS011;25928;51.062;13.752;2023-06-10T09:49:05;8.17;;;7.40;;
815;SDS011;25928;51.062;13.752;2023-06-10T09:51:31;8.73;;;7.90;;
815;SDS011;25928;51.062;13.752;2023-06-10T09:53:57;8.03;;;7.43;;
815;SDS011;25928;51.062;13.752;2023-06-10T09:56:34;8.50;;;7.50;;
815;SDS011;25928;51.062;13.752;2023-06-10T09:59:01;7.77;;;7.17;;
815;SDS011;25928;51.062;13.752;2023-06-10T10:01:27;7.43;;;6.83;;
815;SDS011;25928;51.062;13.752;2023-06-10T10:03:53;8.07;;;7.47;;
815;SDS011;25928;51.062;13.752;2023-06-10T10:06:20;7.70;;;7.00;;
815;SDS011;25928;51.062;13.752;2023-06-10T10:08:46;7.30;;;6.70;;
815;SDS011;25928;51.062;13.752;2023-06-10T10:11:14;6.50;;;6.00;;
815;SDS011;25928;51.062;13.752;2023-06-10T10:13:41;8.77;;;6.10;;
815;SDS011;25928;51.062;13.752;2023-06-10T10:16:11;7.07;;;6.47;;
815;SDS011;25928;51.062;13.752;2023-06-10T10:18:41;7.03;;;6.43;;
815;SDS011;25928;51.062;13.752;2023-06-10T10:21:13;7.80;;;7.27;;
815;SDS011;25928;51.062;13.752;2023-06-10T10:23:44;6.97;;;5.97;;
815;SDS011;25928;51.062;13.752;2023-06-10T10:26:26;7.10;;;6.50;;
815;SDS011;25928;51.062;13.752;2023-06-10T10:29:03;8.00;;;7.40;;
815;SDS011;25928;51.062;13.752;2023-06-10T10:31:34;8.40;;;7.80;;
815;SDS011;25928;51.062;13.752;2023-06-10T10:34:02;7.93;;;7.23;;
815;SDS011;25928;51.062;13.752;2023-06-10T10:36:32;8.10;;;7.40;;
815;SDS011;25928;51.062;13.752;2023-06-10T10:38:58;7.63;;;7.03;;
815;SDS011;25928;51.062;13.752;2023-06-10T10:41:27;7.53;;;6.93;;
815;SDS011;25928;51.062;13.752;2023-06-10T10:43:55;7.60;;;6.90;;
815;SDS011;25928;51.062;13.752;2023-06-10T10:46:21;8.27;;;7.57;;
815;SDS011;25928;51.062;13.752;2023-06-10T10:48:49;9.13;;;7.50;;
815;SDS011;25928;51.062;13.752;2023-06-10T10:51:18;8.77;;;8.03;;
815;SDS011;25928;51.062;13.752;2023-06-10T10:53:44;7.37;;;6.77;;
815;SDS011;25928;51.062;13.752;2023-06-10T10:56:29;7.90;;;7.30;;
815;SDS011;25928;51.062;13.752;2023-06-10T10:59:04;11.83;;;7.87;;
815;SDS011;25928;51.062;13.752;2023-06-10T11:01:40;7.53;;;6.43;;
815;SDS011;25928;51.062;13.752;2023-06-10T11:04:10;7.00;;;6.37;;
815;SDS011;25928;51.062;13.752;2023-06-10T11:06:37;8.13;;;7.17;;
815;SDS011;25928;51.062;13.752;2023-06-10T11:09:24;7.57;;;6.93;;
815;SDS011;25928;51.062;13.752;2023-06-10T11:11:56;8.37;;;7.50;;
815;SDS011;25928;51.062;13.752;2023-06-10T11:14:26;8.50;;;7.77;;
815;SDS011;25928;51.062;13.752;2023-06-10T11:16:58;8.00;;;7.40;;
815;SDS011;25928;51.062;13.752;2023-06-10T11:19:37;8.03;;;7.33;;
815;SDS011;25928;51.062;13.752;2023-06-10T11:22:15;8.77;;;8.07;;
815;SDS011;25928;51.062;13.752;2023-06-10T11:24:44;8.30;;;7.60;;
815;SDS011;25928;51.062;13.752;2023-06-10T11:27:23;7.60;;;6.90;;
815;SDS011;25928;51.062;13.752;2023-06-10T11:32:29;7.83;;;7.23;;
815;SDS011;25928;51.062;13.752;2023-06-10T11:34:59;8.73;;;7.93;;
815;SDS011;25928;51.062;13.752;2023-06-10T11:37:27;8.33;;;7.63;;
815;SDS011;25928;51.062;13.752;2023-06-10T11:39:53;8.23;;;7.37;;
815;SDS011;25928;51.062;13.752;2023-06-10T11:42:19;8.30;;;7.60;;
815;SDS011;25928;51.062;13.752;2023-06-10T11:44:50;9.03;;;8.33;;
815;SDS011;25928;51.062;13.752;2023-06-10T11:47:16;8.73;;;8.03;;
815;SDS011;25928;51.062;13.752;2023-06-10T11:49:42;8.70;;;7.60;;
815;SDS011;25928;51.062;13.752;2023-06-10T11:52:08;8.40;;;7.70;;
815;SDS011;25928;51.062;13.752;2023-06-10T11:54:34;8.70;;;7.97;;
815;SDS011;25928;51.062;13.752;2023-06-10T11:56:59;8.27;;;7.60;;
815;SDS011;25928;51.062;13.752;2023-06-10T11:59:28;8.13;;;7.40;;
815;SDS011;25928;51.062;13.752;2023-06-10T12:01:55;8.73;;;7.93;;
815;SDS011;25928;51.062;13.752;2023-06-10T12:04:21;8.07;;;7.40;;
815;SDS011;25928;51.062;13.752;2023-06-10T12:06:50;8.43;;;7.73;;
815;SDS011;25928;51.062;13.752;2023-06-10T12:09:21;7.90;;;7.10;;
815;SDS011;25928;51.062;13.752;2023-06-10T12:11:52;7.53;;;6.90;;
815;SDS011;25928;51.062;13.752;2023-06-10T12:19:56;8.30;;;7.60;;
815;SDS011;25928;51.062;13.752;2023-06-10T12:22:22;8.07;;;7.27;;
815;SDS011;25928;51.062;13.752;2023-06-10T12:24:59;7.57;;;6.97;;
815;SDS011;25928;51.062;13.752;2023-06-10T12:27:30;6.73;;;6.23;;
815;SDS011;25928;51.062;13.752;2023-06-10T12:29:56;10.97;;;6.93;;
815;SDS011;25928;51.062;13.752;2023-06-10T12:32:35;7.13;;;6.53;;
815;SDS011;25928;51.062;13.752;2023-06-10T12:35:06;9.07;;;8.27;;
815;SDS011;25928;51.062;13.752;2023-06-10T12:37:32;8.90;;;8.00;;
815;SDS011;25928;51.062;13.752;2023-06-10T12:39:59;10.30;;;8.70;;
815;SDS011;25928;51.062;13.752;2023-06-10T12:42:26;8.73;;;7.93;;
815;SDS011;25928;51.062;13.752;2023-06-10T12:44:55;8.27;;;7.53;;
815;SDS011;25928;51.062;13.752;2023-06-10T12:47:28;7.73;;;7.03;;
815;SDS011;25928;51.062;13.752;2023-06-10T12:50:00;7.87;;;7.17;;
815;SDS011;25928;51.062;13.752;2023-06-10T12:52:29;8.30;;;7.60;;
815;SDS011;25928;51.062;13.752;2023-06-10T12:54:55;8.13;;;7.43;;
815;SDS011;25928;51.062;13.752;2023-06-10T12:57:21;8.17;;;7.30;;
815;SDS011;25928;51.062;13.752;2023-06-10T12:59:47;7.97;;;7.27;;
815;SDS011;25928;51.062;13.752;2023-06-10T13:02:17;8.87;;;8.07;;
815;SDS011;25928;51.062;13.752;2023-06-10T13:04:48;8.73;;;8.07;;
815;SDS011;25928;51.062;13.752;2023-06-10T13:07:15;7.70;;;7.10;;
815;SDS011;25928;51.062;13.752;2023-06-10T13:09:41;8.13;;;7.43;;
815;SDS011;25928;51.062;13.752;2023-06-10T13:12:07;8.40;;;7.80;;
815;SDS011;25928;51.062;13.752;2023-06-10T13:14:33;7.70;;;7.00;;
815;SDS011;25928;51.062;13.752;2023-06-10T13:16:59;7.73;;;6.90;;
815;SDS011;25928;51.062;13.752;2023-06-10T13:19:25;8.33;;;7.40;;
815;SDS011;25928;51.062;13.752;2023-06-10T13:21:51;8.13;;;7.43;;
815;SDS011;25928;51.062;13.752;2023-06-10T13:24:17;8.23;;;6.80;;
815;SDS011;25928;51.062;13.752;2023-06-10T13:26:42;8.20;;;7.53;;
815;SDS011;25928;51.062;13.752;2023-06-10T13:29:08;7.53;;;7.00;;
815;SDS011;25928;51.062;13.752;2023-06-10T13:31:39;7.77;;;7.10;;
815;SDS011;25928;51.062;13.752;2023-06-10T13:34:05;7.50;;;6.90;;
815;SDS011;25928;51.062;13.752;2023-06-10T13:36:31;8.30;;;7.10;;
815;SDS011;25928;51.062;13.752;2023-06-10T13:38:57;7.97;;;7.17;;
815;SDS011;25928;51.062;13.752;2023-06-10T13:41:22;7.00;;;6.40;;
815;SDS011;25928;51.062;13.752;2023-06-10T13:43:48;7.27;;;6.67;;
815;SDS011;25928;51.062;13.752;2023-06-10T13:46:14;7.73;;;7.13;;
815;SDS011;25928;51.062;13.752;2023-06-10T13:48:39;7.33;;;6.83;;
815;SDS011;25928;51.062;13.752;2023-06-10T13:51:05;7.00;;;6.40;;
815;SDS011;25928;51.062;13.752;2023-06-10T13:53:32;7.03;;;6.40;;
815;SDS011;25928;51.062;13.752;2023-06-10T13:55:57;6.57;;;5.97;;
815;SDS011;25928;51.062;13.752;2023-06-10T13:58:23;5.70;;;5.20;;
815;SDS011;25928;51.062;13.752;2023-06-10T14:00:48;5.87;;;5.37;;
815;SDS011;25928;51.062;13.752;2023-06-10T14:03:14;5.57;;;5.17;;
815;SDS011;25928;51.062;13.752;2023-06-10T14:05:40;6.07;;;5.53;;
815;SDS011;25928;51.062;13.752;2023-06-10T14:08:06;7.40;;;6.50;;
815;SDS011;25928;51.062;13.752;2023-06-10T14:10:32;6.50;;;5.60;;
815;SDS011;25928;51.062;13.752;2023-06-10T14:12:57;5.73;;;5.23;;
815;SDS011;25928;51.062;13.752;2023-06-10T14:15:23;6.03;;;5.43;;
815;SDS011;25928;51.062;13.752;2023-06-10T14:17:49;5.70;;;5.20;;
815;SDS011;25928;51.062;13.752;2023-06-10T14:20:15;5.67;;;5.10;;
815;SDS011;25928;51.062;13.752;2023-06-10T14:22:40;6.90;;;5.73;;
815;SDS011;25928;51.062;13.752;2023-06-10T14:25:06;5.37;;;4.90;;
815;SDS011;25928;51.062;13.752;2023-06-10T14:27:32;5.57;;;5.17;;
815;SDS011;25928;51.062;13.752;2023-06-10T14:29:58;5.70;;;5.20;;
815;SDS011;25928;51.062;13.752;2023-06-10T14:32:23;6.07;;;5.50;;
815;SDS011;25928;51.062;13.752;2023-06-10T14:34:49;7.47;;;5.60;;
815;SDS011;25928;51.062;13.752;2023-06-10T14:37:15;5.90;;;5.40;;
815;SDS011;25928;51.062;13.752;2023-06-10T14:39:40;5.40;;;5.00;;
815;SDS011;25928;51.062;13.752;2023-06-10T14:42:06;6.30;;;5.70;;
815;SDS011;25928;51.062;13.752;2023-06-10T14:44:32;5.87;;;5.37;;
815;SDS011;25928;51.062;13.752;2023-06-10T14:46:57;5.77;;;5.17;;
815;SDS011;25928;51.062;13.752;2023-06-10T14:49:23;5.80;;;5.30;;
815;SDS011;25928;51.062;13.752;2023-06-10T14:51:49;9.23;;;5.97;;
815;SDS011;25928;51.062;13.752;2023-06-10T14:54:15;6.80;;;5.70;;
815;SDS011;25928;51.062;13.752;2023-06-10T14:56:41;6.60;;;6.00;;
815;SDS011;25928;51.062;13.752;2023-06-10T14:59:06;6.50;;;5.93;;
815;SDS011;25928;51.062;13.752;2023-06-10T15:01:32;6.53;;;6.00;;
815;SDS011;25928;51.062;13.752;2023-06-10T15:03:57;6.40;;;5.80;;
815;SDS011;25928;51.062;13.752;2023-06-10T15:06:23;6.83;;;6.10;;
815;SDS011;25928;51.062;13.752;2023-06-10T15:08:49;6.53;;;6.03;;